sensor_id;sensor_type;location;lat;lon;timestamp;P1;durP1;ratioP1;P2;durP2;ratioP2
30862;SDS011;17573;55.922;37.540;2023-10-13T00:02:01;6.55;;;3.28;;
30862;SDS011;17573;55.922;37.540;2023-10-13T00:04:28;7.68;;;3.20;;
30862;SDS011;17573;55.922;37.540;2023-10-13T00:06:55;10.38;;;3.08;;
30862;SDS011;17573;55.922;37.540;2023-10-13T00:09:25;10.32;;;4.40;;
30862;SDS011;17573;55.922;37.540;2023-10-13T00:12:01;9.40;;;3.40;;
30862;SDS011;17573;55.922;37.540;2023-10-13T00:14:28;10.93;;;3.70;;
30862;SDS011;17573;55.922;37.540;2023-10-13T00:17:02;7.20;;;3.28;;
30862;SDS011;17573;55.922;37.540;2023-10-13T00:19:41;6.03;;;2.97;;
30862;SDS011;17573;55.922;37.540;2023-10-13T00:22:11;4.97;;;2.58;;
30862;SDS011;17573;55.922;37.540;2023-10-13T00:24:39;10.15;;;3.17;;
30862;SDS011;17573;55.922;37.540;2023-10-13T00:27:13;7.70;;;3.08;;
30862;SDS011;17573;55.922;37.540;2023-10-13T00:29:56;7.63;;;3.15;;
30862;SDS011;17573;55.922;37.540;2023-10-13T00:32:42;7.00;;;3.22;;
30862;SDS011;17573;55.922;37.540;2023-10-13T00:35:19;11.32;;;3.63;;
30862;SDS011;17573;55.922;37.540;2023-10-13T00:37:56;6.63;;;3.20;;
30862;SDS011;17573;55.922;37.540;2023-10-13T00:40:25;10.40;;;3.85;;
30862;SDS011;17573;55.922;37.540;2023-10-13T00:42:57;9.85;;;3.08;;
30862;SDS011;17573;55.922;37.540;2023-10-13T00:46:00;11.10;;;3.38;;
30862;SDS011;17573;55.922;37.540;2023-10-13T00:48:35;7.97;;;3.40;;
30862;SDS011;17573;55.922;37.540;2023-10-13T00:51:08;11.52;;;3.42;;
30862;SDS011;17573;55.922;37.540;2023-10-13T00:53:59;8.27;;;3.35;;
30862;SDS011;17573;55.922;37.540;2023-10-13T00:56:27;12.20;;;3.40;;
30862;SDS011;17573;55.922;37.540;2023-10-13T00:58:54;11.90;;;3.65;;
30862;SDS011;17573;55.922;37.540;2023-10-13T01:01:23;6.15;;;3.05;;
30862;SDS011;17573;55.922;37.540;2023-10-13T01:03:58;6.90;;;3.55;;
30862;SDS011;17573;55.922;37.540;2023-10-13T01:06:25;10.95;;;3.75;;
30862;SDS011;17573;55.922;37.540;2023-10-13T01:11:50;5.13;;;2.72;;
30862;SDS011;17573;55.922;37.540;2023-10-13T01:14:21;7.28;;;2.63;;
30862;SDS011;17573;55.922;37.540;2023-10-13T01:16:48;6.10;;;2.50;;
30862;SDS011;17573;55.922;37.540;2023-10-13T01:19:19;7.10;;;2.50;;
30862;SDS011;17573;55.922;37.540;2023-10-13T01:21:53;10.07;;;2.78;;
30862;SDS011;17573;55.922;37.540;2023-10-13T01:24:31;6.88;;;3.05;;
30862;SDS011;17573;55.922;37.540;2023-10-13T01:27:01;6.60;;;2.83;;
30862;SDS011;17573;55.922;37.540;2023-10-13T01:29:44;6.77;;;3.33;;
30862;SDS011;17573;55.922;37.540;2023-10-13T01:32:24;7.15;;;3.30;;
30862;SDS011;17573;55.922;37.540;2023-10-13T01:34:51;5.40;;;2.70;;
30862;SDS011;17573;55.922;37.540;2023-10-13T01:37:22;9.05;;;3.15;;
30862;SDS011;17573;55.922;37.540;2023-10-13T01:39:48;4.57;;;2.60;;
30862;SDS011;17573;55.922;37.540;2023-10-13T01:42:16;3.83;;;2.70;;
30862;SDS011;17573;55.922;37.540;2023-10-13T01:44:50;7.63;;;2.65;;
30862;SDS011;17573;55.922;37.540;2023-10-13T01:47:17;5.35;;;2.88;;
30862;SDS011;17573;55.922;37.540;2023-10-13T01:49:43;7.85;;;3.08;;
30862;SDS011;17573;55.922;37.540;2023-10-13T01:52:14;6.82;;;2.78;;
30862;SDS011;17573;55.922;37.540;2023-10-13T01:54:48;9.07;;;3.15;;
30862;SDS011;17573;55.922;37.540;2023-10-13T01:57:17;7.47;;;2.63;;
30862;SDS011;17573;55.922;37.540;2023-10-13T01:59:44;10.13;;;3.17;;
30862;SDS011;17573;55.922;37.540;2023-10-13T02:02:11;4.78;;;2.30;;
30862;SDS011;17573;55.922;37.540;2023-10-13T02:04:41;10.05;;;3.92;;
30862;SDS011;17573;55.922;37.540;2023-10-13T02:07:15;11.52;;;3.22;;
30862;SDS011;17573;55.922;37.540;2023-10-13T02:09:42;4.53;;;3.25;;
30862;SDS011;17573;55.922;37.540;2023-10-13T02:12:09;9.48;;;3.45;;
30862;SDS011;17573;55.922;37.540;2023-10-13T02:14:35;7.70;;;3.30;;
30862;SDS011;17573;55.922;37.540;2023-10-13T02:17:05;5.50;;;2.95;;
30862;SDS011;17573;55.922;37.540;2023-10-13T02:19:42;4.15;;;3.30;;
30862;SDS011;17573;55.922;37.540;2023-10-13T02:22:32;4.43;;;3.00;;
30862;SDS011;17573;55.922;37.540;2023-10-13T02:24:58;9.23;;;2.67;;
30862;SDS011;17573;55.922;37.540;2023-10-13T02:27:34;8.43;;;2.83;;
30862;SDS011;17573;55.922;37.540;2023-10-13T02:30:07;9.52;;;2.90;;
30862;SDS011;17573;55.922;37.540;2023-10-13T02:35:09;6.45;;;3.40;;
30862;SDS011;17573;55.922;37.540;2023-10-13T02:37:42;11.40;;;3.92;;
30862;SDS011;17573;55.922;37.540;2023-10-13T02:40:20;11.65;;;4.32;;
30862;SDS011;17573;55.922;37.540;2023-10-13T02:42:49;13.70;;;3.45;;
30862;SDS011;17573;55.922;37.540;2023-10-13T02:45:15;14.52;;;3.47;;
30862;SDS011;17573;55.922;37.540;2023-10-13T02:47:43;13.45;;;3.95;;
30862;SDS011;17573;55.922;37.540;2023-10-13T02:50:10;12.27;;;3.42;;
30862;SDS011;17573;55.922;37.540;2023-10-13T02:52:39;7.82;;;3.08;;
30862;SDS011;17573;55.922;37.540;2023-10-13T02:55:07;13.63;;;3.75;;
30862;SDS011;17573;55.922;37.540;2023-10-13T02:57:40;11.45;;;3.15;;
30862;SDS011;17573;55.922;37.540;2023-10-13T03:00:06;13.63;;;3.83;;
30862;SDS011;17573;55.922;37.540;2023-10-13T03:02:42;19.00;;;3.72;;
30862;SDS011;17573;55.922;37.540;2023-10-13T03:05:14;18.00;;;3.80;;
30862;SDS011;17573;55.922;37.540;2023-10-13T03:07:41;8.60;;;3.50;;
30862;SDS011;17573;55.922;37.540;2023-10-13T03:10:10;12.65;;;3.85;;
30862;SDS011;17573;55.922;37.540;2023-10-13T03:12:37;12.13;;;4.80;;
30862;SDS011;17573;55.922;37.540;2023-10-13T03:15:06;12.40;;;3.70;;
30862;SDS011;17573;55.922;37.540;2023-10-13T03:17:59;8.57;;;3.20;;
30862;SDS011;17573;55.922;37.540;2023-10-13T03:20:24;18.05;;;4.28;;
30862;SDS011;17573;55.922;37.540;2023-10-13T03:22:58;16.17;;;4.30;;
30862;SDS011;17573;55.922;37.540;2023-10-13T03:25:25;16.58;;;4.40;;
30862;SDS011;17573;55.922;37.540;2023-10-13T03:27:54;13.52;;;3.85;;
30862;SDS011;17573;55.922;37.540;2023-10-13T03:30:21;14.23;;;3.63;;
30862;SDS011;17573;55.922;37.540;2023-10-13T03:32:51;9.38;;;3.28;;
30862;SDS011;17573;55.922;37.540;2023-10-13T03:35:21;7.70;;;3.88;;
30862;SDS011;17573;55.922;37.540;2023-10-13T03:37:51;12.80;;;3.35;;
30862;SDS011;17573;55.922;37.540;2023-10-13T03:40:17;11.65;;;3.45;;
30862;SDS011;17573;55.922;37.540;2023-10-13T03:45:36;11.27;;;3.38;;
30862;SDS011;17573;55.922;37.540;2023-10-13T03:48:11;12.35;;;3.92;;
30862;SDS011;17573;55.922;37.540;2023-10-13T03:50:51;12.55;;;4.10;;
30862;SDS011;17573;55.922;37.540;2023-10-13T03:53:38;10.70;;;3.33;;
30862;SDS011;17573;55.922;37.540;2023-10-13T03:56:19;18.05;;;3.53;;
30862;SDS011;17573;55.922;37.540;2023-10-13T03:59:05;16.05;;;3.90;;
30862;SDS011;17573;55.922;37.540;2023-10-13T04:01:37;15.10;;;3.50;;
30862;SDS011;17573;55.922;37.540;2023-10-13T04:04:10;11.48;;;3.05;;
30862;SDS011;17573;55.922;37.540;2023-10-13T04:06:38;12.00;;;3.72;;
30862;SDS011;17573;55.922;37.540;2023-10-13T04:09:17;18.52;;;4.65;;
30862;SDS011;17573;55.922;37.540;2023-10-13T04:17:13;8.32;;;3.15;;
30862;SDS011;17573;55.922;37.540;2023-10-13T04:19:40;16.73;;;3.58;;
30862;SDS011;17573;55.922;37.540;2023-10-13T04:22:35;12.35;;;3.53;;
30862;SDS011;17573;55.922;37.540;2023-10-13T04:28:01;17.23;;;4.15;;
30862;SDS011;17573;55.922;37.540;2023-10-13T04:30:48;19.58;;;4.18;;
30862;SDS011;17573;55.922;37.540;2023-10-13T04:33:18;9.27;;;3.60;;
30862;SDS011;17573;55.922;37.540;2023-10-13T04:36:08;10.85;;;4.70;;
30862;SDS011;17573;55.922;37.540;2023-10-13T04:38:54;11.52;;;4.60;;
30862;SDS011;17573;55.922;37.540;2023-10-13T04:41:32;7.82;;;3.83;;
30862;SDS011;17573;55.922;37.540;2023-10-13T04:44:10;9.77;;;3.35;;
30862;SDS011;17573;55.922;37.540;2023-10-13T04:46:57;9.13;;;3.28;;
30862;SDS011;17573;55.922;37.540;2023-10-13T04:49:28;15.40;;;4.15;;
30862;SDS011;17573;55.922;37.540;2023-10-13T04:52:02;16.92;;;3.67;;
30862;SDS011;17573;55.922;37.540;2023-10-13T04:54:40;27.15;;;4.95;;
30862;SDS011;17573;55.922;37.540;2023-10-13T04:57:14;20.67;;;4.07;;
30862;SDS011;17573;55.922;37.540;2023-10-13T04:59:47;18.20;;;4.60;;
30862;SDS011;17573;55.922;37.540;2023-10-13T05:02:43;7.75;;;3.53;;
30862;SDS011;17573;55.922;37.540;2023-10-13T05:05:25;18.42;;;4.15;;
30862;SDS011;17573;55.922;37.540;2023-10-13T05:07:58;7.65;;;3.70;;
30862;SDS011;17573;55.922;37.540;2023-10-13T05:10:42;9.95;;;4.00;;
30862;SDS011;17573;55.922;37.540;2023-10-13T05:13:26;15.80;;;4.28;;
30862;SDS011;17573;55.922;37.540;2023-10-13T05:16:10;11.93;;;3.78;;
30862;SDS011;17573;55.922;37.540;2023-10-13T05:18:55;13.85;;;3.40;;
30862;SDS011;17573;55.922;37.540;2023-10-13T05:21:40;13.05;;;3.83;;
30862;SDS011;17573;55.922;37.540;2023-10-13T05:24:24;7.15;;;3.30;;
30862;SDS011;17573;55.922;37.540;2023-10-13T05:27:09;5.75;;;3.38;;
30862;SDS011;17573;55.922;37.540;2023-10-13T05:29:54;10.13;;;3.92;;
30862;SDS011;17573;55.922;37.540;2023-10-13T05:32:39;13.30;;;3.45;;
30862;SDS011;17573;55.922;37.540;2023-10-13T05:35:24;12.98;;;3.85;;
30862;SDS011;17573;55.922;37.540;2023-10-13T05:38:08;7.75;;;3.33;;
30862;SDS011;17573;55.922;37.540;2023-10-13T05:43:55;7.93;;;3.28;;
30862;SDS011;17573;55.922;37.540;2023-10-13T05:46:39;8.75;;;3.70;;
30862;SDS011;17573;55.922;37.540;2023-10-13T05:49:06;5.43;;;3.55;;
30862;SDS011;17573;55.922;37.540;2023-10-13T05:51:43;10.27;;;3.30;;
30862;SDS011;17573;55.922;37.540;2023-10-13T05:54:12;7.55;;;3.53;;
30862;SDS011;17573;55.922;37.540;2023-10-13T05:59:24;9.88;;;3.17;;
30862;SDS011;17573;55.922;37.540;2023-10-13T06:02:09;16.90;;;3.22;;
30862;SDS011;17573;55.922;37.540;2023-10-13T06:04:53;13.88;;;3.38;;
30862;SDS011;17573;55.922;37.540;2023-10-13T06:07:38;9.38;;;4.13;;
30862;SDS011;17573;55.922;37.540;2023-10-13T06:10:22;9.63;;;3.72;;
30862;SDS011;17573;55.922;37.540;2023-10-13T06:13:07;9.52;;;3.80;;
30862;SDS011;17573;55.922;37.540;2023-10-13T06:15:51;14.40;;;3.95;;
30862;SDS011;17573;55.922;37.540;2023-10-13T06:18:36;7.68;;;3.58;;
30862;SDS011;17573;55.922;37.540;2023-10-13T06:21:20;9.05;;;3.58;;
30862;SDS011;17573;55.922;37.540;2023-10-13T06:24:05;9.98;;;3.50;;
30862;SDS011;17573;55.922;37.540;2023-10-13T06:26:51;8.45;;;3.42;;
30862;SDS011;17573;55.922;37.540;2023-10-13T06:29:35;5.15;;;3.00;;
30862;SDS011;17573;55.922;37.540;2023-10-13T06:32:02;4.82;;;3.05;;
30862;SDS011;17573;55.922;37.540;2023-10-13T06:34:36;10.73;;;4.40;;
30862;SDS011;17573;55.922;37.540;2023-10-13T06:37:25;7.40;;;3.22;;
30862;SDS011;17573;55.922;37.540;2023-10-13T06:42:31;7.60;;;3.50;;
30862;SDS011;17573;55.922;37.540;2023-10-13T06:45:00;5.55;;;3.40;;
30862;SDS011;17573;55.922;37.540;2023-10-13T06:47:36;8.68;;;3.42;;
30862;SDS011;17573;55.922;37.540;2023-10-13T06:50:08;6.93;;;3.15;;
30862;SDS011;17573;55.922;37.540;2023-10-13T06:52:42;11.77;;;3.65;;
30862;SDS011;17573;55.922;37.540;2023-10-13T06:55:09;4.18;;;2.63;;
30862;SDS011;17573;55.922;37.540;2023-10-13T06:57:44;6.15;;;3.17;;
30862;SDS011;17573;55.922;37.540;2023-10-13T07:00:12;5.38;;;2.55;;
30862;SDS011;17573;55.922;37.540;2023-10-13T07:05:12;7.18;;;3.60;;
30862;SDS011;17573;55.922;37.540;2023-10-13T07:07:39;4.03;;;2.25;;
30862;SDS011;17573;55.922;37.540;2023-10-13T07:10:14;14.98;;;3.38;;
30862;SDS011;17573;55.922;37.540;2023-10-13T07:12:42;5.25;;;2.92;;
30862;SDS011;17573;55.922;37.540;2023-10-13T07:15:10;6.25;;;3.17;;
30862;SDS011;17573;55.922;37.540;2023-10-13T07:17:45;7.65;;;3.15;;
30862;SDS011;17573;55.922;37.540;2023-10-13T07:20:13;5.97;;;3.00;;
30862;SDS011;17573;55.922;37.540;2023-10-13T07:22:59;5.72;;;3.10;;
30862;SDS011;17573;55.922;37.540;2023-10-13T07:25:32;13.38;;;3.60;;
30862;SDS011;17573;55.922;37.540;2023-10-13T07:27:59;5.07;;;3.20;;
30862;SDS011;17573;55.922;37.540;2023-10-13T07:30:26;8.55;;;2.90;;
30862;SDS011;17573;55.922;37.540;2023-10-13T07:32:53;4.55;;;2.70;;
30862;SDS011;17573;55.922;37.540;2023-10-13T07:35:23;5.78;;;3.30;;
30862;SDS011;17573;55.922;37.540;2023-10-13T07:37:56;6.05;;;2.60;;
30862;SDS011;17573;55.922;37.540;2023-10-13T07:40:25;7.10;;;2.60;;
30862;SDS011;17573;55.922;37.540;2023-10-13T07:42:54;6.97;;;2.75;;
30862;SDS011;17573;55.922;37.540;2023-10-13T07:45:29;8.57;;;2.55;;
30862;SDS011;17573;55.922;37.540;2023-10-13T07:50:47;9.40;;;2.80;;
30862;SDS011;17573;55.922;37.540;2023-10-13T07:53:14;8.20;;;2.83;;
30862;SDS011;17573;55.922;37.540;2023-10-13T07:55:50;4.63;;;3.25;;
30862;SDS011;17573;55.922;37.540;2023-10-13T07:58:23;6.07;;;2.38;;
30862;SDS011;17573;55.922;37.540;2023-10-13T08:00:53;3.20;;;2.33;;
30862;SDS011;17573;55.922;37.540;2023-10-13T08:03:35;9.30;;;2.83;;
30862;SDS011;17573;55.922;37.540;2023-10-13T08:06:11;6.10;;;2.65;;
30862;SDS011;17573;55.922;37.540;2023-10-13T08:08:38;6.05;;;3.40;;
30862;SDS011;17573;55.922;37.540;2023-10-13T08:11:08;17.90;;;3.83;;
30862;SDS011;17573;55.922;37.540;2023-10-13T08:13:51;4.70;;;2.95;;
30862;SDS011;17573;55.922;37.540;2023-10-13T08:16:21;4.25;;;2.60;;
30862;SDS011;17573;55.922;37.540;2023-10-13T08:18:48;3.65;;;2.03;;
30862;SDS011;17573;55.922;37.540;2023-10-13T08:21:18;5.25;;;2.60;;
30862;SDS011;17573;55.922;37.540;2023-10-13T08:23:57;6.18;;;2.55;;
30862;SDS011;17573;55.922;37.540;2023-10-13T08:26:24;8.45;;;3.10;;
30862;SDS011;17573;55.922;37.540;2023-10-13T08:29:02;8.27;;;3.25;;
30862;SDS011;17573;55.922;37.540;2023-10-13T08:31:44;9.68;;;4.40;;
30862;SDS011;17573;55.922;37.540;2023-10-13T08:34:33;10.38;;;4.90;;
30862;SDS011;17573;55.922;37.540;2023-10-13T08:37:04;14.90;;;6.43;;
30862;SDS011;17573;55.922;37.540;2023-10-13T08:39:49;12.38;;;7.55;;
30862;SDS011;17573;55.922;37.540;2023-10-13T08:45:08;9.30;;;4.68;;
30862;SDS011;17573;55.922;37.540;2023-10-13T08:47:50;7.97;;;4.80;;
30862;SDS011;17573;55.922;37.540;2023-10-13T08:50:34;17.33;;;4.90;;
30862;SDS011;17573;55.922;37.540;2023-10-13T08:53:21;13.68;;;4.68;;
30862;SDS011;17573;55.922;37.540;2023-10-13T08:56:12;7.68;;;3.67;;
30862;SDS011;17573;55.922;37.540;2023-10-13T08:58:42;7.50;;;3.67;;
30862;SDS011;17573;55.922;37.540;2023-10-13T09:01:23;6.03;;;3.03;;
30862;SDS011;17573;55.922;37.540;2023-10-13T09:04:03;12.55;;;4.40;;
30862;SDS011;17573;55.922;37.540;2023-10-13T09:09:47;6.70;;;3.17;;
30862;SDS011;17573;55.922;37.540;2023-10-13T09:12:14;10.25;;;2.95;;
30862;SDS011;17573;55.922;37.540;2023-10-13T09:14:54;7.85;;;3.20;;
30862;SDS011;17573;55.922;37.540;2023-10-13T09:17:27;6.15;;;2.70;;
30862;SDS011;17573;55.922;37.540;2023-10-13T09:20:06;11.43;;;3.15;;
30862;SDS011;17573;55.922;37.540;2023-10-13T09:22:49;4.07;;;1.90;;
30862;SDS011;17573;55.922;37.540;2023-10-13T09:25:31;4.93;;;2.33;;
30862;SDS011;17573;55.922;37.540;2023-10-13T09:28:10;5.20;;;2.67;;
30862;SDS011;17573;55.922;37.540;2023-10-13T09:30:57;13.40;;;2.97;;
30862;SDS011;17573;55.922;37.540;2023-10-13T09:33:28;9.15;;;3.00;;
30862;SDS011;17573;55.922;37.540;2023-10-13T09:36:16;8.93;;;3.08;;
30862;SDS011;17573;55.922;37.540;2023-10-13T09:38:42;8.18;;;2.65;;
30862;SDS011;17573;55.922;37.540;2023-10-13T09:41:14;4.47;;;2.55;;
30862;SDS011;17573;55.922;37.540;2023-10-13T09:43:52;6.22;;;2.83;;
30862;SDS011;17573;55.922;37.540;2023-10-13T09:46:19;6.57;;;2.53;;
30862;SDS011;17573;55.922;37.540;2023-10-13T09:48:49;4.40;;;2.55;;
30862;SDS011;17573;55.922;37.540;2023-10-13T09:51:30;13.27;;;2.67;;
30862;SDS011;17573;55.922;37.540;2023-10-13T09:56:43;11.27;;;2.42;;
30862;SDS011;17573;55.922;37.540;2023-10-13T09:59:36;9.23;;;2.40;;
30862;SDS011;17573;55.922;37.540;2023-10-13T10:02:37;7.18;;;2.30;;
30862;SDS011;17573;55.922;37.540;2023-10-13T10:05:09;5.90;;;2.75;;
30862;SDS011;17573;55.922;37.540;2023-10-13T10:07:40;8.93;;;2.90;;
30862;SDS011;17573;55.922;37.540;2023-10-13T10:10:09;5.22;;;2.28;;
30862;SDS011;17573;55.922;37.540;2023-10-13T10:17:54;4.50;;;2.13;;
30862;SDS011;17573;55.922;37.540;2023-10-13T10:20:33;3.40;;;2.35;;
30862;SDS011;17573;55.922;37.540;2023-10-13T10:23:08;4.28;;;2.20;;
30862;SDS011;17573;55.922;37.540;2023-10-13T10:25:50;4.82;;;2.20;;
30862;SDS011;17573;55.922;37.540;2023-10-13T10:28:17;2.42;;;2.00;;
30862;SDS011;17573;55.922;37.540;2023-10-13T10:30:45;6.50;;;2.10;;
30862;SDS011;17573;55.922;37.540;2023-10-13T10:33:11;3.55;;;1.90;;
30862;SDS011;17573;55.922;37.540;2023-10-13T10:35:40;3.50;;;2.15;;
30862;SDS011;17573;55.922;37.540;2023-10-13T10:40:59;4.30;;;2.03;;
30862;SDS011;17573;55.922;37.540;2023-10-13T10:43:29;7.95;;;1.80;;
30862;SDS011;17573;55.922;37.540;2023-10-13T10:46:14;5.38;;;1.60;;
30862;SDS011;17573;55.922;37.540;2023-10-13T10:48:44;3.33;;;1.83;;
30862;SDS011;17573;55.922;37.540;2023-10-13T10:51:11;4.18;;;1.48;;
30862;SDS011;17573;55.922;37.540;2023-10-13T10:53:47;12.35;;;1.95;;
30862;SDS011;17573;55.922;37.540;2023-10-13T10:56:18;7.30;;;1.92;;
30862;SDS011;17573;55.922;37.540;2023-10-13T10:58:59;7.33;;;1.70;;
30862;SDS011;17573;55.922;37.540;2023-10-13T11:01:26;4.80;;;1.70;;
30862;SDS011;17573;55.922;37.540;2023-10-13T11:04:05;4.85;;;1.98;;
30862;SDS011;17573;55.922;37.540;2023-10-13T11:06:44;7.45;;;2.05;;
30862;SDS011;17573;55.922;37.540;2023-10-13T11:09:11;6.03;;;1.80;;
30862;SDS011;17573;55.922;37.540;2023-10-13T11:14:39;15.57;;;1.70;;
30862;SDS011;17573;55.922;37.540;2023-10-13T11:17:06;5.30;;;1.65;;
30862;SDS011;17573;55.922;37.540;2023-10-13T11:19:46;3.90;;;1.95;;
30862;SDS011;17573;55.922;37.540;2023-10-13T11:22:21;8.85;;;2.20;;
30862;SDS011;17573;55.922;37.540;2023-10-13T11:25:06;4.25;;;2.08;;
30862;SDS011;17573;55.922;37.540;2023-10-13T11:27:37;9.32;;;1.98;;
30862;SDS011;17573;55.922;37.540;2023-10-13T11:30:18;3.55;;;1.38;;
30862;SDS011;17573;55.922;37.540;2023-10-13T11:32:57;5.05;;;1.73;;
30862;SDS011;17573;55.922;37.540;2023-10-13T11:35:33;11.73;;;1.85;;
30862;SDS011;17573;55.922;37.540;2023-10-13T11:41:14;3.97;;;1.58;;
30862;SDS011;17573;55.922;37.540;2023-10-13T11:49:08;5.10;;;1.77;;
30862;SDS011;17573;55.922;37.540;2023-10-13T11:51:41;7.43;;;1.75;;
30862;SDS011;17573;55.922;37.540;2023-10-13T11:54:11;8.02;;;1.88;;
30862;SDS011;17573;55.922;37.540;2023-10-13T11:56:41;3.85;;;1.65;;
30862;SDS011;17573;55.922;37.540;2023-10-13T11:59:08;4.13;;;1.85;;
30862;SDS011;17573;55.922;37.540;2023-10-13T12:01:43;7.88;;;2.40;;
30862;SDS011;17573;55.922;37.540;2023-10-13T12:04:35;9.65;;;1.85;;
30862;SDS011;17573;55.922;37.540;2023-10-13T12:07:08;4.38;;;1.92;;
30862;SDS011;17573;55.922;37.540;2023-10-13T12:09:44;4.13;;;1.60;;
30862;SDS011;17573;55.922;37.540;2023-10-13T12:12:33;5.82;;;1.70;;
30862;SDS011;17573;55.922;37.540;2023-10-13T12:15:06;6.70;;;3.13;;
30862;SDS011;17573;55.922;37.540;2023-10-13T12:17:38;4.30;;;1.98;;
30862;SDS011;17573;55.922;37.540;2023-10-13T12:20:05;4.18;;;1.80;;
30862;SDS011;17573;55.922;37.540;2023-10-13T12:22:39;4.30;;;2.28;;
30862;SDS011;17573;55.922;37.540;2023-10-13T12:25:05;5.32;;;2.15;;
30862;SDS011;17573;55.922;37.540;2023-10-13T12:27:50;8.88;;;1.92;;
30862;SDS011;17573;55.922;37.540;2023-10-13T12:30:23;3.50;;;1.70;;
30862;SDS011;17573;55.922;37.540;2023-10-13T12:33:17;3.53;;;1.60;;
30862;SDS011;17573;55.922;37.540;2023-10-13T12:35:59;5.90;;;2.08;;
30862;SDS011;17573;55.922;37.540;2023-10-13T12:38:33;3.60;;;1.90;;
30862;SDS011;17573;55.922;37.540;2023-10-13T12:41:11;6.15;;;2.20;;
30862;SDS011;17573;55.922;37.540;2023-10-13T12:43:56;6.30;;;2.13;;
30862;SDS011;17573;55.922;37.540;2023-10-13T12:46:40;4.38;;;2.40;;
30862;SDS011;17573;55.922;37.540;2023-10-13T12:49:25;8.60;;;2.53;;
30862;SDS011;17573;55.922;37.540;2023-10-13T12:52:10;5.93;;;2.40;;
30862;SDS011;17573;55.922;37.540;2023-10-13T12:54:43;18.05;;;2.72;;
30862;SDS011;17573;55.922;37.540;2023-10-13T12:57:24;9.68;;;2.72;;
30862;SDS011;17573;55.922;37.540;2023-10-13T12:59:51;8.70;;;3.03;;
30862;SDS011;17573;55.922;37.540;2023-10-13T13:02:20;4.32;;;2.22;;
30862;SDS011;17573;55.922;37.540;2023-10-13T13:04:52;9.30;;;3.10;;
30862;SDS011;17573;55.922;37.540;2023-10-13T13:07:34;6.53;;;2.25;;
30862;SDS011;17573;55.922;37.540;2023-10-13T13:10:09;5.50;;;1.73;;
30862;SDS011;17573;55.922;37.540;2023-10-13T13:12:39;4.13;;;2.25;;
30862;SDS011;17573;55.922;37.540;2023-10-13T13:15:06;5.65;;;2.08;;
30862;SDS011;17573;55.922;37.540;2023-10-13T13:17:37;2.75;;;2.22;;
30862;SDS011;17573;55.922;37.540;2023-10-13T13:20:08;5.22;;;2.67;;
30862;SDS011;17573;55.922;37.540;2023-10-13T13:22:51;11.18;;;2.60;;
30862;SDS011;17573;55.922;37.540;2023-10-13T13:25:19;4.70;;;2.85;;
30862;SDS011;17573;55.922;37.540;2023-10-13T13:27:51;3.67;;;2.45;;
30862;SDS011;17573;55.922;37.540;2023-10-13T13:30:18;6.32;;;2.90;;
30862;SDS011;17573;55.922;37.540;2023-10-13T13:32:46;7.00;;;3.10;;
30862;SDS011;17573;55.922;37.540;2023-10-13T13:35:13;6.40;;;2.28;;
30862;SDS011;17573;55.922;37.540;2023-10-13T13:37:40;8.65;;;3.03;;
30862;SDS011;17573;55.922;37.540;2023-10-13T13:40:10;9.52;;;3.00;;
30862;SDS011;17573;55.922;37.540;2023-10-13T13:42:45;6.38;;;3.50;;
30862;SDS011;17573;55.922;37.540;2023-10-13T13:45:15;5.90;;;3.75;;
30862;SDS011;17573;55.922;37.540;2023-10-13T13:47:57;7.13;;;3.38;;
30862;SDS011;17573;55.922;37.540;2023-10-13T13:50:27;9.60;;;3.10;;
30862;SDS011;17573;55.922;37.540;2023-10-13T13:52:55;8.43;;;3.67;;
30862;SDS011;17573;55.922;37.540;2023-10-13T13:55:22;11.75;;;3.92;;
30862;SDS011;17573;55.922;37.540;2023-10-13T13:57:49;11.05;;;3.65;;
30862;SDS011;17573;55.922;37.540;2023-10-13T14:00:16;7.03;;;4.38;;
30862;SDS011;17573;55.922;37.540;2023-10-13T14:03:03;6.82;;;3.55;;
30862;SDS011;17573;55.922;37.540;2023-10-13T14:05:41;13.18;;;3.85;;
30862;SDS011;17573;55.922;37.540;2023-10-13T14:08:08;17.95;;;4.03;;
30862;SDS011;17573;55.922;37.540;2023-10-13T14:10:42;10.77;;;4.10;;
30862;SDS011;17573;55.922;37.540;2023-10-13T14:13:30;6.53;;;3.78;;
30862;SDS011;17573;55.922;37.540;2023-10-13T14:16:18;9.55;;;4.15;;
30862;SDS011;17573;55.922;37.540;2023-10-13T14:18:49;6.57;;;3.70;;
30862;SDS011;17573;55.922;37.540;2023-10-13T14:21:16;17.45;;;4.45;;
30862;SDS011;17573;55.922;37.540;2023-10-13T14:23:43;7.65;;;3.85;;
30862;SDS011;17573;55.922;37.540;2023-10-13T14:26:11;9.13;;;3.55;;
30862;SDS011;17573;55.922;37.540;2023-10-13T14:28:38;13.30;;;4.10;;
30862;SDS011;17573;55.922;37.540;2023-10-13T14:31:16;27.48;;;4.35;;
30862;SDS011;17573;55.922;37.540;2023-10-13T14:33:45;12.13;;;3.28;;
30862;SDS011;17573;55.922;37.540;2023-10-13T14:36:12;14.02;;;3.33;;
30862;SDS011;17573;55.922;37.540;2023-10-13T14:38:38;8.52;;;4.72;;
30862;SDS011;17573;55.922;37.540;2023-10-13T14:41:05;11.27;;;3.10;;
30862;SDS011;17573;55.922;37.540;2023-10-13T14:43:31;10.32;;;3.60;;
30862;SDS011;17573;55.922;37.540;2023-10-13T14:45:57;5.72;;;3.22;;
30862;SDS011;17573;55.922;37.540;2023-10-13T14:48:26;6.53;;;3.42;;
30862;SDS011;17573;55.922;37.540;2023-10-13T14:50:52;7.15;;;3.50;;
30862;SDS011;17573;55.922;37.540;2023-10-13T14:53:18;10.38;;;3.10;;
30862;SDS011;17573;55.922;37.540;2023-10-13T14:55:47;6.80;;;3.10;;
30862;SDS011;17573;55.922;37.540;2023-10-13T14:58:13;13.57;;;4.07;;
30862;SDS011;17573;55.922;37.540;2023-10-13T15:00:44;13.10;;;3.72;;
30862;SDS011;17573;55.922;37.540;2023-10-13T15:03:11;11.48;;;3.80;;
30862;SDS011;17573;55.922;37.540;2023-10-13T15:05:40;17.08;;;4.38;;
30862;SDS011;17573;55.922;37.540;2023-10-13T15:08:09;9.98;;;3.60;;
30862;SDS011;17573;55.922;37.540;2023-10-13T15:10:36;7.55;;;4.13;;
30862;SDS011;17573;55.922;37.540;2023-10-13T15:13:03;13.65;;;4.63;;
30862;SDS011;17573;55.922;37.540;2023-10-13T15:15:34;10.80;;;4.25;;
30862;SDS011;17573;55.922;37.540;2023-10-13T15:18:02;7.63;;;3.88;;
30862;SDS011;17573;55.922;37.540;2023-10-13T15:20:28;9.35;;;3.10;;
30862;SDS011;17573;55.922;37.540;2023-10-13T15:22:54;12.07;;;4.18;;
30862;SDS011;17573;55.922;37.540;2023-10-13T15:25:26;13.65;;;4.55;;
30862;SDS011;17573;55.922;37.540;2023-10-13T15:27:57;9.68;;;3.70;;
30862;SDS011;17573;55.922;37.540;2023-10-13T15:30:35;8.48;;;3.83;;
30862;SDS011;17573;55.922;37.540;2023-10-13T15:33:11;10.90;;;4.03;;
30862;SDS011;17573;55.922;37.540;2023-10-13T15:35:40;11.90;;;4.60;;
30862;SDS011;17573;55.922;37.540;2023-10-13T15:38:11;18.98;;;4.47;;
30862;SDS011;17573;55.922;37.540;2023-10-13T15:40:41;10.95;;;4.60;;
30862;SDS011;17573;55.922;37.540;2023-10-13T15:43:08;12.88;;;4.75;;
30862;SDS011;17573;55.922;37.540;2023-10-13T15:45:34;14.15;;;4.55;;
30862;SDS011;17573;55.922;37.540;2023-10-13T15:48:08;11.27;;;4.68;;
30862;SDS011;17573;55.922;37.540;2023-10-13T15:50:38;8.13;;;4.30;;
30862;SDS011;17573;55.922;37.540;2023-10-13T15:53:06;7.93;;;3.75;;
30862;SDS011;17573;55.922;37.540;2023-10-13T15:55:41;12.82;;;4.15;;
30862;SDS011;17573;55.922;37.540;2023-10-13T15:58:11;15.88;;;6.25;;
30862;SDS011;17573;55.922;37.540;2023-10-13T16:00:39;11.73;;;4.50;;
30862;SDS011;17573;55.922;37.540;2023-10-13T16:03:05;13.18;;;5.20;;
30862;SDS011;17573;55.922;37.540;2023-10-13T16:05:37;9.50;;;5.13;;
30862;SDS011;17573;55.922;37.540;2023-10-13T16:08:05;10.90;;;5.55;;
30862;SDS011;17573;55.922;37.540;2023-10-13T16:10:38;9.20;;;5.10;;